sensor_id;sensor_type;location;lat;lon;timestamp;P1;durP1;ratioP1;P2;durP2;ratioP2
24813;SDS011;12904;50.088;11.414;2023-09-18T00:00:25;5.15;;;4.75;;
24813;SDS011;12904;50.088;11.414;2023-09-18T00:02:51;5.72;;;5.20;;
24813;SDS011;12904;50.088;11.414;2023-09-18T00:05:16;5.50;;;5.00;;
24813;SDS011;12904;50.088;11.414;2023-09-18T00:07:42;5.00;;;4.60;;
24813;SDS011;12904;50.088;11.414;2023-09-18T00:10:11;4.95;;;4.53;;
24813;SDS011;12904;50.088;11.414;2023-09-18T00:12:37;4.60;;;4.20;;
24813;SDS011;12904;50.088;11.414;2023-09-18T00:15:04;5.00;;;4.60;;
24813;SDS011;12904;50.088;11.414;2023-09-18T00:17:30;7.32;;;5.68;;
24813;SDS011;12904;50.088;11.414;2023-09-18T00:19:56;5.75;;;5.10;;
24813;SDS011;12904;50.088;11.414;2023-09-18T00:22:22;5.75;;;5.25;;
24813;SDS011;12904;50.088;11.414;2023-09-18T00:24:49;6.05;;;5.07;;
24813;SDS011;12904;50.088;11.414;2023-09-18T00:27:15;8.88;;;5.85;;
24813;SDS011;12904;50.088;11.414;2023-09-18T00:29:41;5.20;;;4.70;;
24813;SDS011;12904;50.088;11.414;2023-09-18T00:32:07;5.45;;;5.00;;
24813;SDS011;12904;50.088;11.414;2023-09-18T00:34:33;5.47;;;5.07;;
24813;SDS011;12904;50.088;11.414;2023-09-18T00:36:58;5.45;;;4.95;;
24813;SDS011;12904;50.088;11.414;2023-09-18T00:39:24;6.07;;;5.53;;
24813;SDS011;12904;50.088;11.414;2023-09-18T00:41:50;6.90;;;5.13;;
24813;SDS011;12904;50.088;11.414;2023-09-18T00:44:19;5.75;;;5.25;;
24813;SDS011;12904;50.088;11.414;2023-09-18T00:46:46;5.63;;;5.22;;
24813;SDS011;12904;50.088;11.414;2023-09-18T00:49:13;5.05;;;4.65;;
24813;SDS011;12904;50.088;11.414;2023-09-18T00:51:39;5.43;;;5.03;;
24813;SDS011;12904;50.088;11.414;2023-09-18T00:54:05;5.18;;;4.68;;
24813;SDS011;12904;50.088;11.414;2023-09-18T00:56:32;5.60;;;5.20;;
24813;SDS011;12904;50.088;11.414;2023-09-18T00:58:59;5.05;;;4.65;;
24813;SDS011;12904;50.088;11.414;2023-09-18T01:01:25;5.15;;;4.65;;
24813;SDS011;12904;50.088;11.414;2023-09-18T01:03:50;5.60;;;5.13;;
24813;SDS011;12904;50.088;11.414;2023-09-18T01:06:18;5.30;;;4.90;;
24813;SDS011;12904;50.088;11.414;2023-09-18T01:08:46;4.78;;;4.38;;
24813;SDS011;12904;50.088;11.414;2023-09-18T01:11:19;5.15;;;4.65;;
24813;SDS011;12904;50.088;11.414;2023-09-18T01:14:25;4.78;;;4.38;;
24813;SDS011;12904;50.088;11.414;2023-09-18T01:17:06;5.45;;;4.95;;
24813;SDS011;12904;50.088;11.414;2023-09-18T01:19:39;5.75;;;5.25;;
24813;SDS011;12904;50.088;11.414;2023-09-18T01:22:08;5.07;;;4.68;;
24813;SDS011;12904;50.088;11.414;2023-09-18T01:24:35;5.17;;;4.77;;
24813;SDS011;12904;50.088;11.414;2023-09-18T01:27:02;6.10;;;5.25;;
24813;SDS011;12904;50.088;11.414;2023-09-18T01:29:31;5.60;;;5.10;;
24813;SDS011;12904;50.088;11.414;2023-09-18T01:31:57;5.95;;;5.45;;
24813;SDS011;12904;50.088;11.414;2023-09-18T01:34:27;6.45;;;5.95;;
24813;SDS011;12904;50.088;11.414;2023-09-18T01:36:58;4.82;;;4.43;;
24813;SDS011;12904;50.088;11.414;2023-09-18T01:39:25;5.28;;;4.88;;
24813;SDS011;12904;50.088;11.414;2023-09-18T01:41:57;4.50;;;4.10;;
24813;SDS011;12904;50.088;11.414;2023-09-18T01:44:28;5.25;;;4.75;;
24813;SDS011;12904;50.088;11.414;2023-09-18T01:46:54;5.78;;;5.28;;
24813;SDS011;12904;50.088;11.414;2023-09-18T01:49:27;5.70;;;5.18;;
24813;SDS011;12904;50.088;11.414;2023-09-18T01:52:11;6.07;;;5.60;;
24813;SDS011;12904;50.088;11.414;2023-09-18T01:54:37;4.78;;;4.38;;
24813;SDS011;12904;50.088;11.414;2023-09-18T01:59:38;5.95;;;4.75;;
24813;SDS011;12904;50.088;11.414;2023-09-18T02:02:05;5.03;;;4.63;;
24813;SDS011;12904;50.088;11.414;2023-09-18T02:04:33;5.53;;;3.78;;
24813;SDS011;12904;50.088;11.414;2023-09-18T02:06:59;4.68;;;4.28;;
24813;SDS011;12904;50.088;11.414;2023-09-18T02:09:25;3.95;;;3.58;;
24813;SDS011;12904;50.088;11.414;2023-09-18T02:11:50;4.20;;;3.80;;
24813;SDS011;12904;50.088;11.414;2023-09-18T02:14:16;4.57;;;4.18;;
24813;SDS011;12904;50.088;11.414;2023-09-18T02:16:42;4.68;;;4.13;;
24813;SDS011;12904;50.088;11.414;2023-09-18T02:19:11;5.78;;;4.07;;
24813;SDS011;12904;50.088;11.414;2023-09-18T02:21:39;4.70;;;4.30;;
24813;SDS011;12904;50.088;11.414;2023-09-18T02:24:05;5.45;;;4.95;;
24813;SDS011;12904;50.088;11.414;2023-09-18T02:26:31;5.35;;;4.85;;
24813;SDS011;12904;50.088;11.414;2023-09-18T02:28:58;4.47;;;4.18;;
24813;SDS011;12904;50.088;11.414;2023-09-18T02:31:25;5.43;;;4.93;;
24813;SDS011;12904;50.088;11.414;2023-09-18T02:33:50;5.55;;;5.05;;
24813;SDS011;12904;50.088;11.414;2023-09-18T02:36:16;6.40;;;5.90;;
24813;SDS011;12904;50.088;11.414;2023-09-18T02:38:42;5.75;;;5.15;;
24813;SDS011;12904;50.088;11.414;2023-09-18T02:41:08;5.32;;;4.93;;
24813;SDS011;12904;50.088;11.414;2023-09-18T02:43:34;5.65;;;4.82;;
24813;SDS011;12904;50.088;11.414;2023-09-18T02:46:00;6.55;;;5.78;;
24813;SDS011;12904;50.088;11.414;2023-09-18T02:48:26;5.65;;;5.05;;
24813;SDS011;12904;50.088;11.414;2023-09-18T02:50:51;5.53;;;5.13;;
24813;SDS011;12904;50.088;11.414;2023-09-18T02:55:44;6.03;;;5.47;;
24813;SDS011;12904;50.088;11.414;2023-09-18T02:58:10;5.50;;;5.00;;
24813;SDS011;12904;50.088;11.414;2023-09-18T03:00:42;5.68;;;5.28;;
24813;SDS011;12904;50.088;11.414;2023-09-18T03:03:10;7.15;;;4.57;;
24813;SDS011;12904;50.088;11.414;2023-09-18T03:05:37;5.68;;;4.43;;
24813;SDS011;12904;50.088;11.414;2023-09-18T03:08:03;4.97;;;4.57;;
24813;SDS011;12904;50.088;11.414;2023-09-18T03:10:33;4.88;;;4.47;;
24813;SDS011;12904;50.088;11.414;2023-09-18T03:13:00;5.27;;;4.87;;
24813;SDS011;12904;50.088;11.414;2023-09-18T03:15:26;5.80;;;5.30;;
24813;SDS011;12904;50.088;11.414;2023-09-18T03:17:52;6.25;;;5.75;;
24813;SDS011;12904;50.088;11.414;2023-09-18T03:20:17;7.03;;;5.65;;
24813;SDS011;12904;50.088;11.414;2023-09-18T03:22:43;5.75;;;5.10;;
24813;SDS011;12904;50.088;11.414;2023-09-18T03:25:09;5.68;;;5.25;;
24813;SDS011;12904;50.088;11.414;2023-09-18T03:27:35;5.13;;;4.72;;
24813;SDS011;12904;50.088;11.414;2023-09-18T03:30:00;5.25;;;4.85;;
24813;SDS011;12904;50.088;11.414;2023-09-18T03:32:26;4.75;;;4.30;;
24813;SDS011;12904;50.088;11.414;2023-09-18T03:34:52;5.47;;;5.00;;
24813;SDS011;12904;50.088;11.414;2023-09-18T03:37:18;4.20;;;3.85;;
24813;SDS011;12904;50.088;11.414;2023-09-18T03:39:44;4.50;;;4.10;;
24813;SDS011;12904;50.088;11.414;2023-09-18T03:42:10;4.15;;;3.85;;
24813;SDS011;12904;50.088;11.414;2023-09-18T03:44:35;4.05;;;3.60;;
24813;SDS011;12904;50.088;11.414;2023-09-18T03:47:02;4.20;;;3.80;;
24813;SDS011;12904;50.088;11.414;2023-09-18T03:49:28;5.35;;;4.78;;
24813;SDS011;12904;50.088;11.414;2023-09-18T03:51:54;4.80;;;4.30;;
24813;SDS011;12904;50.088;11.414;2023-09-18T03:54:20;4.38;;;4.07;;
24813;SDS011;12904;50.088;11.414;2023-09-18T03:56:45;4.53;;;4.10;;
24813;SDS011;12904;50.088;11.414;2023-09-18T03:59:12;4.22;;;3.90;;
24813;SDS011;12904;50.088;11.414;2023-09-18T04:01:38;4.57;;;4.18;;
24813;SDS011;12904;50.088;11.414;2023-09-18T04:04:04;5.15;;;4.45;;
24813;SDS011;12904;50.088;11.414;2023-09-18T04:06:37;4.97;;;4.43;;
24813;SDS011;12904;50.088;11.414;2023-09-18T04:09:05;4.10;;;3.80;;
24813;SDS011;12904;50.088;11.414;2023-09-18T04:11:31;4.75;;;4.13;;
24813;SDS011;12904;50.088;11.414;2023-09-18T04:13:58;5.03;;;4.25;;
24813;SDS011;12904;50.088;11.414;2023-09-18T04:16:24;8.48;;;5.07;;
24813;SDS011;12904;50.088;11.414;2023-09-18T04:18:51;5.18;;;4.63;;
24813;SDS011;12904;50.088;11.414;2023-09-18T04:21:17;7.60;;;5.03;;
24813;SDS011;12904;50.088;11.414;2023-09-18T04:23:42;5.22;;;4.72;;
24813;SDS011;12904;50.088;11.414;2023-09-18T04:26:08;5.50;;;4.95;;
24813;SDS011;12904;50.088;11.414;2023-09-18T04:28:33;6.95;;;4.72;;
24813;SDS011;12904;50.088;11.414;2023-09-18T04:30:59;5.68;;;5.13;;
24813;SDS011;12904;50.088;11.414;2023-09-18T04:33:25;6.00;;;5.40;;
24813;SDS011;12904;50.088;11.414;2023-09-18T04:35:50;5.72;;;5.20;;
24813;SDS011;12904;50.088;11.414;2023-09-18T04:38:16;5.47;;;4.95;;
24813;SDS011;12904;50.088;11.414;2023-09-18T04:40:43;6.85;;;5.43;;
24813;SDS011;12904;50.088;11.414;2023-09-18T04:43:10;5.68;;;5.25;;
24813;SDS011;12904;50.088;11.414;2023-09-18T04:45:36;6.28;;;5.78;;
24813;SDS011;12904;50.088;11.414;2023-09-18T04:48:02;7.00;;;5.20;;
24813;SDS011;12904;50.088;11.414;2023-09-18T04:50:30;5.22;;;4.82;;
24813;SDS011;12904;50.088;11.414;2023-09-18T04:52:56;5.18;;;4.65;;
24813;SDS011;12904;50.088;11.414;2023-09-18T04:55:22;5.03;;;4.53;;
24813;SDS011;12904;50.088;11.414;2023-09-18T04:57:48;5.45;;;4.95;;
24813;SDS011;12904;50.088;11.414;2023-09-18T05:00:14;8.68;;;4.93;;
24813;SDS011;12904;50.088;11.414;2023-09-18T05:02:40;5.63;;;5.13;;
24813;SDS011;12904;50.088;11.414;2023-09-18T05:05:06;5.57;;;4.13;;
24813;SDS011;12904;50.088;11.414;2023-09-18T05:07:34;7.60;;;5.18;;
24813;SDS011;12904;50.088;11.414;2023-09-18T05:10:00;6.65;;;5.00;;
24813;SDS011;12904;50.088;11.414;2023-09-18T05:12:25;5.55;;;4.50;;
24813;SDS011;12904;50.088;11.414;2023-09-18T05:14:51;4.53;;;3.78;;
24813;SDS011;12904;50.088;11.414;2023-09-18T05:17:17;4.72;;;4.18;;
24813;SDS011;12904;50.088;11.414;2023-09-18T05:19:43;4.63;;;4.22;;
24813;SDS011;12904;50.088;11.414;2023-09-18T05:22:09;4.50;;;3.88;;
24813;SDS011;12904;50.088;11.414;2023-09-18T05:24:36;4.28;;;3.88;;
24813;SDS011;12904;50.088;11.414;2023-09-18T05:27:03;4.50;;;4.10;;
24813;SDS011;12904;50.088;11.414;2023-09-18T05:29:31;4.05;;;3.67;;
24813;SDS011;12904;50.088;11.414;2023-09-18T05:31:57;3.47;;;3.15;;
24813;SDS011;12904;50.088;11.414;2023-09-18T05:34:22;3.25;;;2.95;;
24813;SDS011;12904;50.088;11.414;2023-09-18T05:36:48;4.28;;;3.97;;
24813;SDS011;12904;50.088;11.414;2023-09-18T05:39:15;5.82;;;3.60;;
24813;SDS011;12904;50.088;11.414;2023-09-18T05:41:41;7.30;;;3.55;;
24813;SDS011;12904;50.088;11.414;2023-09-18T05:44:07;4.50;;;4.10;;
24813;SDS011;12904;50.088;11.414;2023-09-18T05:46:36;5.85;;;4.82;;
24813;SDS011;12904;50.088;11.414;2023-09-18T05:49:02;4.18;;;3.72;;
24813;SDS011;12904;50.088;11.414;2023-09-18T05:51:29;4.25;;;3.88;;
24813;SDS011;12904;50.088;11.414;2023-09-18T05:53:56;3.78;;;3.47;;
24813;SDS011;12904;50.088;11.414;2023-09-18T05:56:21;3.97;;;3.47;;
24813;SDS011;12904;50.088;11.414;2023-09-18T05:58:48;4.63;;;4.18;;
24813;SDS011;12904;50.088;11.414;2023-09-18T06:01:14;5.03;;;4.05;;
24813;SDS011;12904;50.088;11.414;2023-09-18T06:03:40;4.15;;;3.75;;
24813;SDS011;12904;50.088;11.414;2023-09-18T06:06:05;5.13;;;3.60;;
24813;SDS011;12904;50.088;11.414;2023-09-18T06:08:31;7.55;;;4.20;;
24813;SDS011;12904;50.088;11.414;2023-09-18T06:10:58;5.30;;;3.90;;
24813;SDS011;12904;50.088;11.414;2023-09-18T06:13:24;4.57;;;4.18;;
24813;SDS011;12904;50.088;11.414;2023-09-18T06:15:50;5.60;;;4.05;;
24813;SDS011;12904;50.088;11.414;2023-09-18T06:18:17;3.97;;;3.60;;
24813;SDS011;12904;50.088;11.414;2023-09-18T06:20:45;4.00;;;3.25;;
24813;SDS011;12904;50.088;11.414;2023-09-18T06:23:11;7.07;;;3.25;;
24813;SDS011;12904;50.088;11.414;2023-09-18T06:25:37;3.58;;;3.25;;
24813;SDS011;12904;50.088;11.414;2023-09-18T06:28:04;3.53;;;3.22;;
24813;SDS011;12904;50.088;11.414;2023-09-18T06:30:30;3.60;;;3.30;;
24813;SDS011;12904;50.088;11.414;2023-09-18T06:32:56;3.80;;;3.45;;
24813;SDS011;12904;50.088;11.414;2023-09-18T06:35:22;3.75;;;3.40;;
24813;SDS011;12904;50.088;11.414;2023-09-18T06:37:47;5.13;;;4.05;;
24813;SDS011;12904;50.088;11.414;2023-09-18T06:40:13;2.97;;;2.72;;
24813;SDS011;12904;50.088;11.414;2023-09-18T06:42:39;3.45;;;3.15;;
24813;SDS011;12904;50.088;11.414;2023-09-18T06:45:05;3.97;;;3.15;;
24813;SDS011;12904;50.088;11.414;2023-09-18T06:47:34;4.43;;;3.22;;
24813;SDS011;12904;50.088;11.414;2023-09-18T06:50:00;4.05;;;3.17;;
24813;SDS011;12904;50.088;11.414;2023-09-18T06:52:26;5.22;;;2.53;;
24813;SDS011;12904;50.088;11.414;2023-09-18T06:54:53;2.85;;;2.63;;
24813;SDS011;12904;50.088;11.414;2023-09-18T06:57:19;7.05;;;2.58;;
24813;SDS011;12904;50.088;11.414;2023-09-18T06:59:46;5.85;;;3.28;;
24813;SDS011;12904;50.088;11.414;2023-09-18T07:02:12;4.93;;;2.60;;
24813;SDS011;12904;50.088;11.414;2023-09-18T07:04:41;3.35;;;2.90;;
24813;SDS011;12904;50.088;11.414;2023-09-18T07:07:14;3.05;;;2.55;;
24813;SDS011;12904;50.088;11.414;2023-09-18T07:09:40;3.42;;;3.13;;
24813;SDS011;12904;50.088;11.414;2023-09-18T07:12:07;3.75;;;2.83;;
24813;SDS011;12904;50.088;11.414;2023-09-18T07:14:34;8.82;;;3.70;;
24813;SDS011;12904;50.088;11.414;2023-09-18T07:17:00;2.70;;;2.50;;
24813;SDS011;12904;50.088;11.414;2023-09-18T07:19:27;2.85;;;2.53;;
24813;SDS011;12904;50.088;11.414;2023-09-18T07:21:53;2.50;;;2.30;;
24813;SDS011;12904;50.088;11.414;2023-09-18T07:24:18;2.50;;;2.30;;
24813;SDS011;12904;50.088;11.414;2023-09-18T07:26:45;2.33;;;2.13;;
24813;SDS011;12904;50.088;11.414;2023-09-18T07:29:13;2.30;;;2.10;;
24813;SDS011;12904;50.088;11.414;2023-09-18T07:31:40;2.40;;;2.10;;
24813;SDS011;12904;50.088;11.414;2023-09-18T07:34:09;3.22;;;1.88;;
24813;SDS011;12904;50.088;11.414;2023-09-18T07:36:35;2.67;;;1.90;;
24813;SDS011;12904;50.088;11.414;2023-09-18T07:39:02;3.17;;;2.10;;
24813;SDS011;12904;50.088;11.414;2023-09-18T07:41:29;2.08;;;1.88;;
24813;SDS011;12904;50.088;11.414;2023-09-18T07:43:56;2.05;;;1.90;;
24813;SDS011;12904;50.088;11.414;2023-09-18T07:46:23;12.88;;;5.00;;
24813;SDS011;12904;50.088;11.414;2023-09-18T07:48:49;2.00;;;1.80;;
24813;SDS011;12904;50.088;11.414;2023-09-18T07:51:14;2.58;;;1.95;;
24813;SDS011;12904;50.088;11.414;2023-09-18T07:53:41;2.40;;;2.17;;
24813;SDS011;12904;50.088;11.414;2023-09-18T07:56:07;2.67;;;2.45;;
24813;SDS011;12904;50.088;11.414;2023-09-18T07:58:33;5.10;;;2.03;;
24813;SDS011;12904;50.088;11.414;2023-09-18T08:01:03;1.90;;;1.80;;
24813;SDS011;12904;50.088;11.414;2023-09-18T08:03:30;2.42;;;2.22;;
24813;SDS011;12904;50.088;11.414;2023-09-18T08:05:55;2.33;;;2.10;;
24813;SDS011;12904;50.088;11.414;2023-09-18T08:08:22;3.13;;;1.83;;
24813;SDS011;12904;50.088;11.414;2023-09-18T08:10:51;2.05;;;1.77;;
24813;SDS011;12904;50.088;11.414;2023-09-18T08:13:17;2.03;;;1.85;;
24813;SDS011;12904;50.088;11.414;2023-09-18T08:15:44;1.95;;;1.80;;
24813;SDS011;12904;50.088;11.414;2023-09-18T08:18:10;2.35;;;2.15;;
24813;SDS011;12904;50.088;11.414;2023-09-18T08:20:41;2.40;;;1.80;;
24813;SDS011;12904;50.088;11.414;2023-09-18T08:23:11;2.50;;;2.13;;
24813;SDS011;12904;50.088;11.414;2023-09-18T08:25:37;2.47;;;2.28;;
24813;SDS011;12904;50.088;11.414;2023-09-18T08:28:03;2.15;;;1.95;;
24813;SDS011;12904;50.088;11.414;2023-09-18T08:30:29;1.85;;;1.70;;
24813;SDS011;12904;50.088;11.414;2023-09-18T08:32:55;2.05;;;1.85;;
24813;SDS011;12904;50.088;11.414;2023-09-18T08:35:21;1.90;;;1.80;;
24813;SDS011;12904;50.088;11.414;2023-09-18T08:37:47;2.30;;;2.10;;
24813;SDS011;12904;50.088;11.414;2023-09-18T08:40:13;2.25;;;2.05;;
24813;SDS011;12904;50.088;11.414;2023-09-18T08:42:46;1.85;;;1.65;;
24813;SDS011;12904;50.088;11.414;2023-09-18T08:45:15;2.22;;;2.05;;
24813;SDS011;12904;50.088;11.414;2023-09-18T08:47:50;2.88;;;2.03;;
24813;SDS011;12904;50.088;11.414;2023-09-18T08:50:17;2.15;;;2.05;;
24813;SDS011;12904;50.088;11.414;2023-09-18T08:52:43;3.70;;;2.20;;
24813;SDS011;12904;50.088;11.414;2023-09-18T08:55:10;1.95;;;1.80;;
24813;SDS011;12904;50.088;11.414;2023-09-18T08:57:36;2.38;;;1.85;;
24813;SDS011;12904;50.088;11.414;2023-09-18T09:00:03;1.88;;;1.77;;
24813;SDS011;12904;50.088;11.414;2023-09-18T09:02:33;4.55;;;1.73;;
24813;SDS011;12904;50.088;11.414;2023-09-18T09:04:59;1.90;;;1.70;;
24813;SDS011;12904;50.088;11.414;2023-09-18T09:07:25;2.88;;;1.63;;
24813;SDS011;12904;50.088;11.414;2023-09-18T09:09:51;1.80;;;1.70;;
24813;SDS011;12904;50.088;11.414;2023-09-18T09:12:45;2.03;;;1.67;;
24813;SDS011;12904;50.088;11.414;2023-09-18T09:15:29;1.90;;;1.73;;
24813;SDS011;12904;50.088;11.414;2023-09-18T09:18:09;1.65;;;1.55;;
24813;SDS011;12904;50.088;11.414;2023-09-18T09:20:36;3.05;;;2.03;;
24813;SDS011;12904;50.088;11.414;2023-09-18T09:23:02;1.65;;;1.55;;
24813;SDS011;12904;50.088;11.414;2023-09-18T09:25:30;2.55;;;1.80;;
24813;SDS011;12904;50.088;11.414;2023-09-18T09:27:57;2.20;;;1.88;;
24813;SDS011;12904;50.088;11.414;2023-09-18T09:30:24;1.60;;;1.50;;
24813;SDS011;12904;50.088;11.414;2023-09-18T09:32:52;1.73;;;1.55;;
24813;SDS011;12904;50.088;11.414;2023-09-18T09:35:26;2.58;;;2.13;;
24813;SDS011;12904;50.088;11.414;2023-09-18T09:37:56;3.17;;;2.13;;
24813;SDS011;12904;50.088;11.414;2023-09-18T09:40:26;2.80;;;2.20;;
24813;SDS011;12904;50.088;11.414;2023-09-18T09:42:54;3.22;;;2.25;;
24813;SDS011;12904;50.088;11.414;2023-09-18T09:45:25;2.17;;;1.98;;
24813;SDS011;12904;50.088;11.414;2023-09-18T09:47:54;2.22;;;2.03;;
24813;SDS011;12904;50.088;11.414;2023-09-18T09:50:19;5.15;;;2.00;;
24813;SDS011;12904;50.088;11.414;2023-09-18T09:52:47;2.58;;;2.10;;
24813;SDS011;12904;50.088;11.414;2023-09-18T09:57:48;3.17;;;2.45;;
24813;SDS011;12904;50.088;11.414;2023-09-18T10:00:16;5.25;;;2.03;;
24813;SDS011;12904;50.088;11.414;2023-09-18T10:03:02;4.60;;;1.60;;
24813;SDS011;12904;50.088;11.414;2023-09-18T10:05:31;3.50;;;1.30;;
24813;SDS011;12904;50.088;11.414;2023-09-18T10:07:59;1.52;;;1.08;;
24813;SDS011;12904;50.088;11.414;2023-09-18T10:10:29;1.07;;;0.97;;
24813;SDS011;12904;50.088;11.414;2023-09-18T10:13:03;1.65;;;1.10;;
24813;SDS011;12904;50.088;11.414;2023-09-18T10:15:34;4.57;;;1.20;;
24813;SDS011;12904;50.088;11.414;2023-09-18T10:18:03;1.85;;;1.05;;
24813;SDS011;12904;50.088;11.414;2023-09-18T10:20:33;1.23;;;0.93;;
24813;SDS011;12904;50.088;11.414;2023-09-18T10:23:09;3.55;;;1.05;;
24813;SDS011;12904;50.088;11.414;2023-09-18T10:25:48;4.40;;;1.67;;
24813;SDS011;12904;50.088;11.414;2023-09-18T10:28:19;1.65;;;1.40;;
24813;SDS011;12904;50.088;11.414;2023-09-18T10:30:46;1.55;;;1.38;;
24813;SDS011;12904;50.088;11.414;2023-09-18T10:33:14;2.88;;;0.80;;
24813;SDS011;12904;50.088;11.414;2023-09-18T10:35:41;1.55;;;1.17;;
24813;SDS011;12904;50.088;11.414;2023-09-18T10:38:08;4.22;;;1.10;;
24813;SDS011;12904;50.088;11.414;2023-09-18T10:40:35;1.65;;;0.80;;
24813;SDS011;12904;50.088;11.414;2023-09-18T10:43:02;2.10;;;0.80;;
24813;SDS011;12904;50.088;11.414;2023-09-18T10:45:34;0.70;;;0.70;;
24813;SDS011;12904;50.088;11.414;2023-09-18T10:48:01;1.10;;;0.70;;
24813;SDS011;12904;50.088;11.414;2023-09-18T10:50:29;1.95;;;0.82;;
24813;SDS011;12904;50.088;11.414;2023-09-18T10:52:57;2.00;;;1.13;;
24813;SDS011;12904;50.088;11.414;2023-09-18T10:55:23;2.05;;;1.10;;
24813;SDS011;12904;50.088;11.414;2023-09-18T10:57:53;0.82;;;0.75;;
24813;SDS011;12904;50.088;11.414;2023-09-18T11:03:09;1.55;;;0.90;;
24813;SDS011;12904;50.088;11.414;2023-09-18T11:05:42;1.30;;;0.90;;
24813;SDS011;12904;50.088;11.414;2023-09-18T11:11:18;1.35;;;1.23;;
24813;SDS011;12904;50.088;11.414;2023-09-18T11:13:51;2.08;;;1.20;;
24813;SDS011;12904;50.088;11.414;2023-09-18T11:19:05;2.28;;;1.08;;
24813;SDS011;12904;50.088;11.414;2023-09-18T11:21:34;1.45;;;1.00;;
24813;SDS011;12904;50.088;11.414;2023-09-18T11:24:21;2.15;;;1.20;;
24813;SDS011;12904;50.088;11.414;2023-09-18T11:26:48;1.23;;;1.00;;
24813;SDS011;12904;50.088;11.414;2023-09-18T11:29:15;1.65;;;0.90;;
24813;SDS011;12904;50.088;11.414;2023-09-18T11:36:54;1.63;;;0.90;;
24813;SDS011;12904;50.088;11.414;2023-09-18T11:44:37;1.67;;;0.80;;
24813;SDS011;12904;50.088;11.414;2023-09-18T11:47:10;3.63;;;0.90;;
24813;SDS011;12904;50.088;11.414;2023-09-18T11:49:46;4.03;;;0.70;;
24813;SDS011;12904;50.088;11.414;2023-09-18T11:52:16;2.65;;;0.70;;
24813;SDS011;12904;50.088;11.414;2023-09-18T11:54:43;2.90;;;0.90;;
24813;SDS011;12904;50.088;11.414;2023-09-18T11:57:11;2.42;;;0.65;;
24813;SDS011;12904;50.088;11.414;2023-09-18T11:59:38;1.30;;;0.80;;
24813;SDS011;12904;50.088;11.414;2023-09-18T12:02:07;1.42;;;0.52;;
24813;SDS011;12904;50.088;11.414;2023-09-18T12:04:35;0.60;;;0.45;;
24813;SDS011;12904;50.088;11.414;2023-09-18T12:07:02;4.05;;;0.70;;
24813;SDS011;12904;50.088;11.414;2023-09-18T12:09:35;0.38;;;0.38;;
24813;SDS011;12904;50.088;11.414;2023-09-18T12:12:01;0.98;;;0.40;;
24813;SDS011;12904;50.088;11.414;2023-09-18T12:14:31;0.73;;;0.40;;
24813;SDS011;12904;50.088;11.414;2023-09-18T12:16:57;1.95;;;0.40;;
24813;SDS011;12904;50.088;11.414;2023-09-18T12:19:25;0.80;;;0.40;;
24813;SDS011;12904;50.088;11.414;2023-09-18T12:21:51;0.52;;;0.50;;
24813;SDS011;12904;50.088;11.414;2023-09-18T12:24:26;1.73;;;0.40;;
24813;SDS011;12904;50.088;11.414;2023-09-18T12:26:52;0.50;;;0.50;;
24813;SDS011;12904;50.088;11.414;2023-09-18T12:29:19;1.52;;;1.42;;
24813;SDS011;12904;50.088;11.414;2023-09-18T12:31:45;0.98;;;0.40;;
24813;SDS011;12904;50.088;11.414;2023-09-18T12:34:17;2.40;;;0.40;;
24813;SDS011;12904;50.088;11.414;2023-09-18T12:36:46;0.40;;;0.40;;
24813;SDS011;12904;50.088;11.414;2023-09-18T12:39:12;1.02;;;0.40;;
24813;SDS011;12904;50.088;11.414;2023-09-18T12:41:42;3.55;;;0.70;;
24813;SDS011;12904;50.088;11.414;2023-09-18T12:44:09;1.75;;;0.68;;
24813;SDS011;12904;50.088;11.414;2023-09-18T12:46:35;6.43;;;0.70;;
24813;SDS011;12904;50.088;11.414;2023-09-18T12:52:01;3.60;;;0.57;;
24813;SDS011;12904;50.088;11.414;2023-09-18T12:57:19;1.52;;;0.57;;
24813;SDS011;12904;50.088;11.414;2023-09-18T12:59:45;2.47;;;0.70;;
24813;SDS011;12904;50.088;11.414;2023-09-18T13:02:15;2.88;;;0.70;;
24813;SDS011;12904;50.088;11.414;2023-09-18T13:04:47;2.38;;;0.80;;
24813;SDS011;12904;50.088;11.414;2023-09-18T13:07:20;1.60;;;0.70;;
24813;SDS011;12904;50.088;11.414;2023-09-18T13:09:59;1.48;;;0.85;;
24813;SDS011;12904;50.088;11.414;2023-09-18T13:12:25;3.28;;;0.80;;
24813;SDS011;12904;50.088;11.414;2023-09-18T13:15:04;1.92;;;0.80;;
24813;SDS011;12904;50.088;11.414;2023-09-18T13:17:51;2.88;;;0.80;;
24813;SDS011;12904;50.088;11.414;2023-09-18T13:20:18;1.05;;;0.60;;
24813;SDS011;12904;50.088;11.414;2023-09-18T13:22:49;1.90;;;0.75;;
24813;SDS011;12904;50.088;11.414;2023-09-18T13:25:22;1.48;;;0.75;;
24813;SDS011;12904;50.088;11.414;2023-09-18T13:27:50;2.58;;;0.70;;
24813;SDS011;12904;50.088;11.414;2023-09-18T13:30:17;1.80;;;0.70;;
24813;SDS011;12904;50.088;11.414;2023-09-18T13:32:45;2.72;;;1.35;;
24813;SDS011;12904;50.088;11.414;2023-09-18T13:35:13;0.70;;;0.60;;
24813;SDS011;12904;50.088;11.414;2023-09-18T13:37:40;3.50;;;1.15;;
24813;SDS011;12904;50.088;11.414;2023-09-18T13:40:06;1.00;;;0.70;;
24813;SDS011;12904;50.088;11.414;2023-09-18T13:42:33;2.55;;;0.85;;
24813;SDS011;12904;50.088;11.414;2023-09-18T13:45:00;2.58;;;0.80;;
24813;SDS011;12904;50.088;11.414;2023-09-18T13:47:29;1.27;;;0.70;;
24813;SDS011;12904;50.088;11.414;2023-09-18T13:49:55;3.70;;;2.00;;
24813;SDS011;12904;50.088;11.414;2023-09-18T13:52:22;3.00;;;1.05;;
24813;SDS011;12904;50.088;11.414;2023-09-18T13:54:49;1.40;;;0.85;;
24813;SDS011;12904;50.088;11.414;2023-09-18T13:57:19;2.05;;;0.80;;
24813;SDS011;12904;50.088;11.414;2023-09-18T13:59:45;6.18;;;2.72;;
24813;SDS011;12904;50.088;11.414;2023-09-18T14:02:13;4.30;;;1.10;;
24813;SDS011;12904;50.088;11.414;2023-09-18T14:04:40;3.10;;;1.00;;
24813;SDS011;12904;50.088;11.414;2023-09-18T14:07:06;2.33;;;1.23;;
24813;SDS011;12904;50.088;11.414;2023-09-18T14:09:32;2.97;;;2.05;;
24813;SDS011;12904;50.088;11.414;2023-09-18T14:11:59;1.73;;;0.93;;
24813;SDS011;12904;50.088;11.414;2023-09-18T14:14:25;0.95;;;0.80;;
24813;SDS011;12904;50.088;11.414;2023-09-18T14:16:51;3.00;;;1.00;;
24813;SDS011;12904;50.088;11.414;2023-09-18T14:19:17;2.45;;;0.80;;
24813;SDS011;12904;50.088;11.414;2023-09-18T14:21:42;0.98;;;0.77;;
24813;SDS011;12904;50.088;11.414;2023-09-18T14:24:08;2.63;;;0.90;;
24813;SDS011;12904;50.088;11.414;2023-09-18T14:26:35;1.85;;;0.85;;
24813;SDS011;12904;50.088;11.414;2023-09-18T14:29:07;1.15;;;0.85;;
24813;SDS011;12904;50.088;11.414;2023-09-18T14:31:33;5.10;;;1.00;;
24813;SDS011;12904;50.088;11.414;2023-09-18T14:33:59;1.30;;;0.73;;
24813;SDS011;12904;50.088;11.414;2023-09-18T14:36:25;0.93;;;0.77;;
24813;SDS011;12904;50.088;11.414;2023-09-18T14:38:51;2.15;;;0.80;;
24813;SDS011;12904;50.088;11.414;2023-09-18T14:41:17;1.95;;;1.05;;
24813;SDS011;12904;50.088;11.414;2023-09-18T14:43:44;2.58;;;1.10;;
24813;SDS011;12904;50.088;11.414;2023-09-18T14:46:10;1.83;;;1.02;;
24813;SDS011;12904;50.088;11.414;2023-09-18T14:48:36;3.92;;;1.42;;
24813;SDS011;12904;50.088;11.414;2023-09-18T14:51:01;2.25;;;1.10;;
24813;SDS011;12904;50.088;11.414;2023-09-18T14:53:27;3.17;;;1.15;;
24813;SDS011;12904;50.088;11.414;2023-09-18T14:55:53;3.28;;;1.38;;
24813;SDS011;12904;50.088;11.414;2023-09-18T14:58:20;1.95;;;1.17;;
24813;SDS011;12904;50.088;11.414;2023-09-18T15:00:48;1.80;;;1.10;;
24813;SDS011;12904;50.088;11.414;2023-09-18T15:03:14;4.35;;;1.30;;
24813;SDS011;12904;50.088;11.414;2023-09-18T15:05:40;2.67;;;1.20;;
24813;SDS011;12904;50.088;11.414;2023-09-18T15:08:06;2.05;;;1.23;;